sensor_id;sensor_type;location;lat;lon;timestamp;P1;durP1;ratioP1;P2;durP2;ratioP2
20776;SDS011;10548;47.504;8.248;2022-12-29T00:00:20;6.63;;;4.27;;
20776;SDS011;10548;47.504;8.248;2022-12-29T00:02:47;7.10;;;4.13;;
20776;SDS011;10548;47.504;8.248;2022-12-29T00:05:14;7.30;;;4.40;;
20776;SDS011;10548;47.504;8.248;2022-12-29T00:07:41;6.20;;;3.70;;
20776;SDS011;10548;47.504;8.248;2022-12-29T00:10:08;6.80;;;3.83;;
20776;SDS011;10548;47.504;8.248;2022-12-29T00:12:36;5.47;;;4.03;;
20776;SDS011;10548;47.504;8.248;2022-12-29T00:15:21;6.73;;;4.00;;
20776;SDS011;10548;47.504;8.248;2022-12-29T00:18:04;5.80;;;3.80;;
20776;SDS011;10548;47.504;8.248;2022-12-29T00:20:36;5.53;;;3.80;;
20776;SDS011;10548;47.504;8.248;2022-12-29T00:23:22;6.00;;;3.47;;
20776;SDS011;10548;47.504;8.248;2022-12-29T00:26:14;5.30;;;2.70;;
20776;SDS011;10548;47.504;8.248;2022-12-29T00:29:02;5.47;;;2.87;;
20776;SDS011;10548;47.504;8.248;2022-12-29T00:31:48;5.50;;;3.00;;
20776;SDS011;10548;47.504;8.248;2022-12-29T00:34:34;4.57;;;2.47;;
20776;SDS011;10548;47.504;8.248;2022-12-29T00:37:20;5.93;;;2.63;;
20776;SDS011;10548;47.504;8.248;2022-12-29T00:40:07;3.50;;;2.50;;
20776;SDS011;10548;47.504;8.248;2022-12-29T00:42:53;3.27;;;2.30;;
20776;SDS011;10548;47.504;8.248;2022-12-29T00:45:41;3.73;;;2.37;;
20776;SDS011;10548;47.504;8.248;2022-12-29T00:48:08;5.07;;;2.50;;
20776;SDS011;10548;47.504;8.248;2022-12-29T00:50:35;4.40;;;2.30;;
20776;SDS011;10548;47.504;8.248;2022-12-29T00:53:02;7.53;;;2.53;;
20776;SDS011;10548;47.504;8.248;2022-12-29T00:55:30;4.20;;;2.20;;
20776;SDS011;10548;47.504;8.248;2022-12-29T00:57:58;3.90;;;2.10;;
20776;SDS011;10548;47.504;8.248;2022-12-29T01:00:26;3.33;;;1.63;;
20776;SDS011;10548;47.504;8.248;2022-12-29T01:02:54;3.73;;;2.00;;
20776;SDS011;10548;47.504;8.248;2022-12-29T01:05:22;2.97;;;1.90;;
20776;SDS011;10548;47.504;8.248;2022-12-29T01:07:50;6.23;;;2.17;;
20776;SDS011;10548;47.504;8.248;2022-12-29T01:10:17;3.37;;;2.23;;
20776;SDS011;10548;47.504;8.248;2022-12-29T01:12:45;4.00;;;2.83;;
20776;SDS011;10548;47.504;8.248;2022-12-29T01:15:14;4.63;;;2.20;;
20776;SDS011;10548;47.504;8.248;2022-12-29T01:17:41;3.53;;;2.10;;
20776;SDS011;10548;47.504;8.248;2022-12-29T01:20:10;5.27;;;2.20;;
20776;SDS011;10548;47.504;8.248;2022-12-29T01:22:37;3.63;;;2.20;;
20776;SDS011;10548;47.504;8.248;2022-12-29T01:25:05;2.63;;;1.93;;
20776;SDS011;10548;47.504;8.248;2022-12-29T01:27:33;5.27;;;2.60;;
20776;SDS011;10548;47.504;8.248;2022-12-29T01:30:01;2.80;;;2.03;;
20776;SDS011;10548;47.504;8.248;2022-12-29T01:32:30;3.70;;;2.20;;
20776;SDS011;10548;47.504;8.248;2022-12-29T01:34:58;3.90;;;2.07;;
20776;SDS011;10548;47.504;8.248;2022-12-29T01:37:25;4.60;;;2.37;;
20776;SDS011;10548;47.504;8.248;2022-12-29T01:39:53;2.80;;;2.10;;
20776;SDS011;10548;47.504;8.248;2022-12-29T01:42:23;4.63;;;2.20;;
20776;SDS011;10548;47.504;8.248;2022-12-29T01:44:55;5.40;;;2.10;;
20776;SDS011;10548;47.504;8.248;2022-12-29T01:47:35;5.77;;;2.10;;
20776;SDS011;10548;47.504;8.248;2022-12-29T01:53:03;2.73;;;1.97;;
20776;SDS011;10548;47.504;8.248;2022-12-29T01:55:36;5.87;;;2.43;;
20776;SDS011;10548;47.504;8.248;2022-12-29T01:58:06;7.03;;;2.43;;
20776;SDS011;10548;47.504;8.248;2022-12-29T02:00:34;6.17;;;2.60;;
20776;SDS011;10548;47.504;8.248;2022-12-29T02:03:01;3.80;;;1.90;;
20776;SDS011;10548;47.504;8.248;2022-12-29T02:08:32;3.60;;;2.30;;
20776;SDS011;10548;47.504;8.248;2022-12-29T02:11:00;3.07;;;2.10;;
20776;SDS011;10548;47.504;8.248;2022-12-29T02:13:28;6.17;;;2.40;;
20776;SDS011;10548;47.504;8.248;2022-12-29T02:19:46;4.33;;;1.93;;
20776;SDS011;10548;47.504;8.248;2022-12-29T02:28:53;2.93;;;2.07;;
20776;SDS011;10548;47.504;8.248;2022-12-29T02:31:51;3.33;;;2.20;;
20776;SDS011;10548;47.504;8.248;2022-12-29T02:35:11;5.23;;;2.40;;
20776;SDS011;10548;47.504;8.248;2022-12-29T02:37:36;4.27;;;2.63;;
20776;SDS011;10548;47.504;8.248;2022-12-29T02:48:59;5.53;;;2.30;;
20776;SDS011;10548;47.504;8.248;2022-12-29T02:51:34;3.03;;;2.00;;
20776;SDS011;10548;47.504;8.248;2022-12-29T02:54:03;5.93;;;2.30;;
20776;SDS011;10548;47.504;8.248;2022-12-29T02:56:49;9.47;;;2.30;;
20776;SDS011;10548;47.504;8.248;2022-12-29T02:59:16;6.10;;;2.47;;
20776;SDS011;10548;47.504;8.248;2022-12-29T03:11:15;5.17;;;2.20;;
20776;SDS011;10548;47.504;8.248;2022-12-29T03:14:03;4.57;;;2.17;;
20776;SDS011;10548;47.504;8.248;2022-12-29T03:17:09;3.70;;;2.10;;
20776;SDS011;10548;47.504;8.248;2022-12-29T03:19:43;5.10;;;2.40;;
20776;SDS011;10548;47.504;8.248;2022-12-29T03:22:18;5.63;;;2.17;;
20776;SDS011;10548;47.504;8.248;2022-12-29T03:25:23;3.17;;;2.10;;
20776;SDS011;10548;47.504;8.248;2022-12-29T03:27:56;6.30;;;2.57;;
20776;SDS011;10548;47.504;8.248;2022-12-29T03:30:26;3.70;;;2.40;;
20776;SDS011;10548;47.504;8.248;2022-12-29T03:33:00;3.97;;;2.00;;
20776;SDS011;10548;47.504;8.248;2022-12-29T03:35:32;3.73;;;2.20;;
20776;SDS011;10548;47.504;8.248;2022-12-29T03:40:58;4.03;;;2.03;;
20776;SDS011;10548;47.504;8.248;2022-12-29T03:43:28;5.77;;;2.47;;
20776;SDS011;10548;47.504;8.248;2022-12-29T03:45:56;3.93;;;2.20;;
20776;SDS011;10548;47.504;8.248;2022-12-29T03:48:24;3.90;;;2.23;;
20776;SDS011;10548;47.504;8.248;2022-12-29T03:50:54;5.17;;;2.80;;
20776;SDS011;10548;47.504;8.248;2022-12-29T03:53:22;4.23;;;2.03;;
20776;SDS011;10548;47.504;8.248;2022-12-29T03:55:50;4.30;;;2.03;;
20776;SDS011;10548;47.504;8.248;2022-12-29T03:58:18;8.93;;;2.87;;
20776;SDS011;10548;47.504;8.248;2022-12-29T04:01:00;3.40;;;2.57;;
20776;SDS011;10548;47.504;8.248;2022-12-29T04:03:30;6.37;;;2.60;;
20776;SDS011;10548;47.504;8.248;2022-12-29T04:05:58;4.97;;;2.63;;
20776;SDS011;10548;47.504;8.248;2022-12-29T04:08:28;5.20;;;2.57;;
20776;SDS011;10548;47.504;8.248;2022-12-29T04:10:57;4.10;;;2.63;;
20776;SDS011;10548;47.504;8.248;2022-12-29T04:13:25;4.27;;;2.40;;
20776;SDS011;10548;47.504;8.248;2022-12-29T04:15:53;5.63;;;2.40;;
20776;SDS011;10548;47.504;8.248;2022-12-29T04:18:21;5.97;;;2.53;;
20776;SDS011;10548;47.504;8.248;2022-12-29T04:20:49;5.53;;;2.87;;
20776;SDS011;10548;47.504;8.248;2022-12-29T04:23:27;6.23;;;2.80;;
20776;SDS011;10548;47.504;8.248;2022-12-29T04:25:55;6.47;;;2.60;;
20776;SDS011;10548;47.504;8.248;2022-12-29T04:28:24;8.07;;;2.67;;
20776;SDS011;10548;47.504;8.248;2022-12-29T04:31:02;6.37;;;2.63;;
20776;SDS011;10548;47.504;8.248;2022-12-29T04:33:35;5.67;;;2.53;;
20776;SDS011;10548;47.504;8.248;2022-12-29T04:36:03;4.50;;;2.70;;
20776;SDS011;10548;47.504;8.248;2022-12-29T04:38:31;5.00;;;2.40;;
20776;SDS011;10548;47.504;8.248;2022-12-29T04:41:02;4.70;;;2.70;;
20776;SDS011;10548;47.504;8.248;2022-12-29T04:43:31;3.40;;;2.37;;
20776;SDS011;10548;47.504;8.248;2022-12-29T04:46:33;6.47;;;2.47;;
20776;SDS011;10548;47.504;8.248;2022-12-29T04:49:07;5.20;;;2.53;;
20776;SDS011;10548;47.504;8.248;2022-12-29T04:52:00;7.13;;;3.00;;
20776;SDS011;10548;47.504;8.248;2022-12-29T04:54:29;6.93;;;2.63;;
20776;SDS011;10548;47.504;8.248;2022-12-29T04:57:06;6.37;;;2.63;;
20776;SDS011;10548;47.504;8.248;2022-12-29T04:59:36;5.00;;;2.70;;
20776;SDS011;10548;47.504;8.248;2022-12-29T05:02:04;7.67;;;2.97;;
20776;SDS011;10548;47.504;8.248;2022-12-29T05:04:33;3.57;;;2.77;;
20776;SDS011;10548;47.504;8.248;2022-12-29T05:07:01;6.10;;;2.77;;
20776;SDS011;10548;47.504;8.248;2022-12-29T05:09:29;3.70;;;2.50;;
20776;SDS011;10548;47.504;8.248;2022-12-29T05:11:57;4.27;;;2.63;;
20776;SDS011;10548;47.504;8.248;2022-12-29T05:14:25;9.47;;;2.90;;
20776;SDS011;10548;47.504;8.248;2022-12-29T05:16:52;5.00;;;2.33;;
20776;SDS011;10548;47.504;8.248;2022-12-29T05:19:20;4.77;;;2.80;;
20776;SDS011;10548;47.504;8.248;2022-12-29T05:21:48;6.77;;;3.30;;
20776;SDS011;10548;47.504;8.248;2022-12-29T05:24:15;5.87;;;2.93;;
20776;SDS011;10548;47.504;8.248;2022-12-29T05:26:44;7.73;;;2.90;;
20776;SDS011;10548;47.504;8.248;2022-12-29T05:29:43;4.53;;;2.97;;
20776;SDS011;10548;47.504;8.248;2022-12-29T05:32:11;4.87;;;2.47;;
20776;SDS011;10548;47.504;8.248;2022-12-29T05:34:41;5.73;;;2.67;;
20776;SDS011;10548;47.504;8.248;2022-12-29T05:37:08;4.77;;;2.90;;
20776;SDS011;10548;47.504;8.248;2022-12-29T05:39:37;5.90;;;2.53;;
20776;SDS011;10548;47.504;8.248;2022-12-29T05:42:07;8.03;;;2.97;;
20776;SDS011;10548;47.504;8.248;2022-12-29T05:44:47;7.47;;;3.50;;
20776;SDS011;10548;47.504;8.248;2022-12-29T05:47:28;4.73;;;2.80;;
20776;SDS011;10548;47.504;8.248;2022-12-29T05:50:20;4.23;;;2.50;;
20776;SDS011;10548;47.504;8.248;2022-12-29T05:53:06;4.13;;;2.43;;
20776;SDS011;10548;47.504;8.248;2022-12-29T05:55:36;8.57;;;2.80;;
20776;SDS011;10548;47.504;8.248;2022-12-29T05:58:08;4.93;;;2.73;;
20776;SDS011;10548;47.504;8.248;2022-12-29T06:00:35;4.07;;;2.53;;
20776;SDS011;10548;47.504;8.248;2022-12-29T06:03:03;5.03;;;2.73;;
20776;SDS011;10548;47.504;8.248;2022-12-29T06:05:31;6.00;;;2.70;;
20776;SDS011;10548;47.504;8.248;2022-12-29T06:07:58;4.43;;;2.47;;
20776;SDS011;10548;47.504;8.248;2022-12-29T06:10:26;5.70;;;2.90;;
20776;SDS011;10548;47.504;8.248;2022-12-29T06:12:59;4.97;;;2.83;;
20776;SDS011;10548;47.504;8.248;2022-12-29T06:15:29;4.63;;;3.10;;
20776;SDS011;10548;47.504;8.248;2022-12-29T06:17:57;6.23;;;2.80;;
20776;SDS011;10548;47.504;8.248;2022-12-29T06:20:25;4.27;;;2.57;;
20776;SDS011;10548;47.504;8.248;2022-12-29T06:22:52;4.77;;;2.67;;
20776;SDS011;10548;47.504;8.248;2022-12-29T06:25:20;9.63;;;3.10;;
20776;SDS011;10548;47.504;8.248;2022-12-29T06:27:47;7.73;;;2.80;;
20776;SDS011;10548;47.504;8.248;2022-12-29T06:30:15;7.17;;;2.97;;
20776;SDS011;10548;47.504;8.248;2022-12-29T06:32:43;8.10;;;2.90;;
20776;SDS011;10548;47.504;8.248;2022-12-29T06:35:12;9.17;;;2.97;;
20776;SDS011;10548;47.504;8.248;2022-12-29T06:37:46;8.83;;;2.73;;
20776;SDS011;10548;47.504;8.248;2022-12-29T06:40:14;6.87;;;3.03;;
20776;SDS011;10548;47.504;8.248;2022-12-29T06:43:01;7.83;;;2.83;;
20776;SDS011;10548;47.504;8.248;2022-12-29T06:45:52;5.83;;;2.70;;
20776;SDS011;10548;47.504;8.248;2022-12-29T06:48:20;6.63;;;3.10;;
20776;SDS011;10548;47.504;8.248;2022-12-29T06:50:48;3.83;;;2.57;;
20776;SDS011;10548;47.504;8.248;2022-12-29T06:53:15;11.60;;;2.57;;
20776;SDS011;10548;47.504;8.248;2022-12-29T06:55:42;4.47;;;2.43;;
20776;SDS011;10548;47.504;8.248;2022-12-29T06:58:10;5.20;;;2.03;;
20776;SDS011;10548;47.504;8.248;2022-12-29T07:00:37;4.57;;;2.10;;
20776;SDS011;10548;47.504;8.248;2022-12-29T07:03:05;4.20;;;2.13;;
20776;SDS011;10548;47.504;8.248;2022-12-29T07:05:33;5.60;;;2.17;;
20776;SDS011;10548;47.504;8.248;2022-12-29T07:08:00;8.23;;;2.40;;
20776;SDS011;10548;47.504;8.248;2022-12-29T07:10:28;10.13;;;2.40;;
20776;SDS011;10548;47.504;8.248;2022-12-29T07:12:55;5.67;;;2.60;;
20776;SDS011;10548;47.504;8.248;2022-12-29T07:15:22;4.77;;;2.17;;
20776;SDS011;10548;47.504;8.248;2022-12-29T07:17:50;5.37;;;2.40;;
20776;SDS011;10548;47.504;8.248;2022-12-29T07:20:17;7.10;;;2.50;;
20776;SDS011;10548;47.504;8.248;2022-12-29T07:22:52;5.53;;;2.53;;
20776;SDS011;10548;47.504;8.248;2022-12-29T07:25:19;8.67;;;2.77;;
20776;SDS011;10548;47.504;8.248;2022-12-29T07:27:46;11.67;;;2.80;;
20776;SDS011;10548;47.504;8.248;2022-12-29T07:30:14;5.47;;;2.20;;
20776;SDS011;10548;47.504;8.248;2022-12-29T07:32:42;5.50;;;2.50;;
20776;SDS011;10548;47.504;8.248;2022-12-29T07:35:09;10.37;;;2.07;;
20776;SDS011;10548;47.504;8.248;2022-12-29T07:37:37;4.23;;;2.33;;
20776;SDS011;10548;47.504;8.248;2022-12-29T07:40:05;8.70;;;2.97;;
20776;SDS011;10548;47.504;8.248;2022-12-29T07:42:32;6.93;;;2.40;;
20776;SDS011;10548;47.504;8.248;2022-12-29T07:45:00;4.37;;;1.93;;
20776;SDS011;10548;47.504;8.248;2022-12-29T07:47:48;5.00;;;2.70;;
20776;SDS011;10548;47.504;8.248;2022-12-29T07:50:16;4.73;;;2.23;;
20776;SDS011;10548;47.504;8.248;2022-12-29T07:52:43;6.47;;;2.57;;
20776;SDS011;10548;47.504;8.248;2022-12-29T07:55:11;5.47;;;2.47;;
20776;SDS011;10548;47.504;8.248;2022-12-29T07:57:38;5.90;;;2.77;;
20776;SDS011;10548;47.504;8.248;2022-12-29T08:00:06;5.57;;;2.40;;
20776;SDS011;10548;47.504;8.248;2022-12-29T08:02:37;6.50;;;2.70;;
20776;SDS011;10548;47.504;8.248;2022-12-29T08:05:05;4.43;;;2.50;;
20776;SDS011;10548;47.504;8.248;2022-12-29T08:07:32;4.40;;;2.30;;
20776;SDS011;10548;47.504;8.248;2022-12-29T08:10:00;5.60;;;2.20;;
20776;SDS011;10548;47.504;8.248;2022-12-29T08:12:27;4.80;;;2.60;;
20776;SDS011;10548;47.504;8.248;2022-12-29T08:14:55;10.70;;;3.10;;
20776;SDS011;10548;47.504;8.248;2022-12-29T08:17:22;5.07;;;2.50;;
20776;SDS011;10548;47.504;8.248;2022-12-29T08:19:50;5.80;;;2.43;;
20776;SDS011;10548;47.504;8.248;2022-12-29T08:22:17;4.53;;;2.33;;
20776;SDS011;10548;47.504;8.248;2022-12-29T08:24:45;4.40;;;2.33;;
20776;SDS011;10548;47.504;8.248;2022-12-29T08:27:12;4.77;;;2.27;;
20776;SDS011;10548;47.504;8.248;2022-12-29T08:29:46;5.73;;;2.27;;
20776;SDS011;10548;47.504;8.248;2022-12-29T08:32:13;8.70;;;2.63;;
20776;SDS011;10548;47.504;8.248;2022-12-29T08:34:41;6.37;;;3.07;;
20776;SDS011;10548;47.504;8.248;2022-12-29T08:37:08;4.73;;;2.60;;
20776;SDS011;10548;47.504;8.248;2022-12-29T08:39:36;8.83;;;2.40;;
20776;SDS011;10548;47.504;8.248;2022-12-29T08:42:03;4.60;;;2.33;;
20776;SDS011;10548;47.504;8.248;2022-12-29T08:44:31;5.17;;;2.33;;
20776;SDS011;10548;47.504;8.248;2022-12-29T08:46:58;6.17;;;2.00;;
20776;SDS011;10548;47.504;8.248;2022-12-29T08:49:26;6.43;;;2.17;;
20776;SDS011;10548;47.504;8.248;2022-12-29T08:51:53;4.47;;;2.13;;
20776;SDS011;10548;47.504;8.248;2022-12-29T08:54:20;7.63;;;2.40;;
20776;SDS011;10548;47.504;8.248;2022-12-29T08:56:48;4.17;;;2.33;;
20776;SDS011;10548;47.504;8.248;2022-12-29T08:59:16;7.30;;;2.40;;
20776;SDS011;10548;47.504;8.248;2022-12-29T09:01:46;6.67;;;2.13;;
20776;SDS011;10548;47.504;8.248;2022-12-29T09:04:14;12.37;;;2.60;;
20776;SDS011;10548;47.504;8.248;2022-12-29T09:06:44;8.10;;;2.13;;
20776;SDS011;10548;47.504;8.248;2022-12-29T09:09:11;5.60;;;1.90;;
20776;SDS011;10548;47.504;8.248;2022-12-29T09:11:39;4.40;;;2.10;;
20776;SDS011;10548;47.504;8.248;2022-12-29T09:14:07;3.37;;;2.23;;
20776;SDS011;10548;47.504;8.248;2022-12-29T09:16:34;5.07;;;2.00;;
20776;SDS011;10548;47.504;8.248;2022-12-29T09:19:02;7.13;;;2.40;;
20776;SDS011;10548;47.504;8.248;2022-12-29T09:21:30;4.83;;;2.50;;
20776;SDS011;10548;47.504;8.248;2022-12-29T09:23:57;3.47;;;1.70;;
20776;SDS011;10548;47.504;8.248;2022-12-29T09:26:25;5.90;;;2.10;;
20776;SDS011;10548;47.504;8.248;2022-12-29T09:28:52;3.67;;;1.67;;
20776;SDS011;10548;47.504;8.248;2022-12-29T09:31:20;4.37;;;1.90;;
20776;SDS011;10548;47.504;8.248;2022-12-29T09:33:48;5.87;;;2.03;;
20776;SDS011;10548;47.504;8.248;2022-12-29T09:36:16;15.63;;;2.10;;
20776;SDS011;10548;47.504;8.248;2022-12-29T09:38:43;10.20;;;2.23;;
20776;SDS011;10548;47.504;8.248;2022-12-29T09:41:15;7.53;;;2.87;;
20776;SDS011;10548;47.504;8.248;2022-12-29T09:46:43;11.43;;;4.93;;
20776;SDS011;10548;47.504;8.248;2022-12-29T09:49:20;6.70;;;2.23;;
20776;SDS011;10548;47.504;8.248;2022-12-29T09:51:50;6.00;;;2.00;;
20776;SDS011;10548;47.504;8.248;2022-12-29T09:54:55;6.70;;;1.97;;
20776;SDS011;10548;47.504;8.248;2022-12-29T09:57:46;7.43;;;2.90;;
20776;SDS011;10548;47.504;8.248;2022-12-29T10:00:43;10.27;;;2.20;;
20776;SDS011;10548;47.504;8.248;2022-12-29T10:03:32;6.00;;;2.03;;
20776;SDS011;10548;47.504;8.248;2022-12-29T10:06:12;5.03;;;1.70;;
20776;SDS011;10548;47.504;8.248;2022-12-29T10:08:57;5.83;;;1.97;;
20776;SDS011;10548;47.504;8.248;2022-12-29T10:12:02;4.37;;;1.80;;
20776;SDS011;10548;47.504;8.248;2022-12-29T10:21:47;4.40;;;1.63;;
20776;SDS011;10548;47.504;8.248;2022-12-29T10:24:38;7.20;;;2.33;;
20776;SDS011;10548;47.504;8.248;2022-12-29T10:27:12;3.77;;;1.57;;
20776;SDS011;10548;47.504;8.248;2022-12-29T10:29:52;4.23;;;1.73;;
20776;SDS011;10548;47.504;8.248;2022-12-29T10:32:40;10.20;;;2.47;;
20776;SDS011;10548;47.504;8.248;2022-12-29T10:35:16;1.90;;;1.60;;
20776;SDS011;10548;47.504;8.248;2022-12-29T10:37:49;6.63;;;2.10;;
20776;SDS011;10548;47.504;8.248;2022-12-29T10:43:24;4.27;;;1.83;;
20776;SDS011;10548;47.504;8.248;2022-12-29T10:45:52;5.03;;;1.60;;
20776;SDS011;10548;47.504;8.248;2022-12-29T10:48:22;4.35;;;1.83;;
20776;SDS011;10548;47.504;8.248;2022-12-29T10:50:58;9.60;;;1.80;;
20776;SDS011;10548;47.504;8.248;2022-12-29T10:53:30;5.23;;;1.63;;
20776;SDS011;10548;47.504;8.248;2022-12-29T10:56:13;5.97;;;1.90;;
20776;SDS011;10548;47.504;8.248;2022-12-29T10:58:48;4.27;;;1.80;;
20776;SDS011;10548;47.504;8.248;2022-12-29T11:01:16;6.60;;;1.90;;
20776;SDS011;10548;47.504;8.248;2022-12-29T11:03:46;4.00;;;1.47;;
20776;SDS011;10548;47.504;8.248;2022-12-29T11:06:25;5.70;;;1.80;;
20776;SDS011;10548;47.504;8.248;2022-12-29T11:08:57;4.43;;;1.60;;
20776;SDS011;10548;47.504;8.248;2022-12-29T11:11:27;3.53;;;1.40;;
20776;SDS011;10548;47.504;8.248;2022-12-29T11:14:08;3.07;;;1.50;;
20776;SDS011;10548;47.504;8.248;2022-12-29T11:16:39;3.67;;;1.33;;
20776;SDS011;10548;47.504;8.248;2022-12-29T11:19:25;2.40;;;1.43;;
20776;SDS011;10548;47.504;8.248;2022-12-29T11:21:53;6.23;;;1.47;;
20776;SDS011;10548;47.504;8.248;2022-12-29T11:24:25;5.20;;;1.70;;
20776;SDS011;10548;47.504;8.248;2022-12-29T11:26:54;7.00;;;1.10;;
20776;SDS011;10548;47.504;8.248;2022-12-29T11:29:38;4.33;;;1.60;;
20776;SDS011;10548;47.504;8.248;2022-12-29T11:32:18;5.57;;;1.60;;
20776;SDS011;10548;47.504;8.248;2022-12-29T11:34:53;4.53;;;1.37;;
20776;SDS011;10548;47.504;8.248;2022-12-29T11:37:29;8.37;;;1.87;;
20776;SDS011;10548;47.504;8.248;2022-12-29T11:39:58;3.92;;;1.38;;
20776;SDS011;10548;47.504;8.248;2022-12-29T11:42:37;5.67;;;1.40;;
20776;SDS011;10548;47.504;8.248;2022-12-29T11:45:06;3.13;;;1.57;;
20776;SDS011;10548;47.504;8.248;2022-12-29T11:47:36;6.20;;;1.40;;
20776;SDS011;10548;47.504;8.248;2022-12-29T11:50:04;3.33;;;1.10;;
20776;SDS011;10548;47.504;8.248;2022-12-29T11:52:35;2.93;;;1.10;;
20776;SDS011;10548;47.504;8.248;2022-12-29T11:55:08;5.77;;;1.30;;
20776;SDS011;10548;47.504;8.248;2022-12-29T11:57:43;2.37;;;1.30;;
20776;SDS011;10548;47.504;8.248;2022-12-29T12:00:15;5.23;;;1.10;;
20776;SDS011;10548;47.504;8.248;2022-12-29T12:02:45;3.67;;;1.87;;
20776;SDS011;10548;47.504;8.248;2022-12-29T12:05:17;4.47;;;1.43;;
20776;SDS011;10548;47.504;8.248;2022-12-29T12:08:05;4.83;;;1.50;;
20776;SDS011;10548;47.504;8.248;2022-12-29T12:10:51;4.30;;;1.00;;
20776;SDS011;10548;47.504;8.248;2022-12-29T12:13:22;6.40;;;2.07;;
20776;SDS011;10548;47.504;8.248;2022-12-29T12:15:57;8.47;;;1.50;;
20776;SDS011;10548;47.504;8.248;2022-12-29T12:18:45;7.67;;;1.70;;
20776;SDS011;10548;47.504;8.248;2022-12-29T12:21:25;3.33;;;1.50;;
20776;SDS011;10548;47.504;8.248;2022-12-29T12:24:07;2.80;;;1.40;;
20776;SDS011;10548;47.504;8.248;2022-12-29T12:27:08;5.93;;;1.30;;
20776;SDS011;10548;47.504;8.248;2022-12-29T12:30:05;3.10;;;1.40;;
20776;SDS011;10548;47.504;8.248;2022-12-29T12:36:22;4.70;;;1.50;;
20776;SDS011;10548;47.504;8.248;2022-12-29T12:39:29;4.20;;;1.40;;
20776;SDS011;10548;47.504;8.248;2022-12-29T12:48:59;6.47;;;1.10;;
20776;SDS011;10548;47.504;8.248;2022-12-29T12:52:01;4.70;;;1.20;;
20776;SDS011;10548;47.504;8.248;2022-12-29T12:54:55;4.40;;;1.30;;
20776;SDS011;10548;47.504;8.248;2022-12-29T13:00:37;2.17;;;1.00;;
20776;SDS011;10548;47.504;8.248;2022-12-29T13:03:13;4.53;;;1.23;;
20776;SDS011;10548;47.504;8.248;2022-12-29T13:14:29;3.17;;;1.60;;
20776;SDS011;10548;47.504;8.248;2022-12-29T13:17:43;2.63;;;1.30;;
20776;SDS011;10548;47.504;8.248;2022-12-29T13:20:19;4.80;;;1.30;;
20776;SDS011;10548;47.504;8.248;2022-12-29T13:26:14;9.10;;;1.40;;
20776;SDS011;10548;47.504;8.248;2022-12-29T13:33:35;2.70;;;1.20;;
20776;SDS011;10548;47.504;8.248;2022-12-29T13:35:11;4.33;;;1.30;;
20776;SDS011;10548;47.504;8.248;2022-12-29T13:38:16;3.83;;;1.40;;
20776;SDS011;10548;47.504;8.248;2022-12-29T13:40:55;3.90;;;1.23;;
20776;SDS011;10548;47.504;8.248;2022-12-29T13:43:26;1.80;;;1.07;;
20776;SDS011;10548;47.504;8.248;2022-12-29T13:46:14;2.07;;;1.10;;
20776;SDS011;10548;47.504;8.248;2022-12-29T13:48:46;4.37;;;1.30;;
20776;SDS011;10548;47.504;8.248;2022-12-29T13:51:16;2.67;;;1.10;;
20776;SDS011;10548;47.504;8.248;2022-12-29T13:54:40;1.77;;;0.93;;
20776;SDS011;10548;47.504;8.248;2022-12-29T13:56:51;3.87;;;1.13;;
20776;SDS011;10548;47.504;8.248;2022-12-29T13:59:43;2.53;;;1.30;;
20776;SDS011;10548;47.504;8.248;2022-12-29T14:02:37;3.70;;;1.03;;
20776;SDS011;10548;47.504;8.248;2022-12-29T14:05:01;3.40;;;1.00;;
20776;SDS011;10548;47.504;8.248;2022-12-29T14:07:29;5.93;;;1.43;;
20776;SDS011;10548;47.504;8.248;2022-12-29T14:10:04;3.17;;;1.23;;
20776;SDS011;10548;47.504;8.248;2022-12-29T14:12:38;3.88;;;1.20;;
20776;SDS011;10548;47.504;8.248;2022-12-29T14:15:14;5.50;;;1.20;;
20776;SDS011;10548;47.504;8.248;2022-12-29T14:17:42;4.30;;;1.27;;
20776;SDS011;10548;47.504;8.248;2022-12-29T14:20:20;4.43;;;1.40;;
20776;SDS011;10548;47.504;8.248;2022-12-29T14:23:01;3.43;;;1.20;;
20776;SDS011;10548;47.504;8.248;2022-12-29T14:25:51;3.90;;;1.20;;
20776;SDS011;10548;47.504;8.248;2022-12-29T14:28:27;3.92;;;1.25;;
20776;SDS011;10548;47.504;8.248;2022-12-29T14:31:02;4.90;;;1.30;;
20776;SDS011;10548;47.504;8.248;2022-12-29T14:34:25;2.33;;;1.10;;
20776;SDS011;10548;47.504;8.248;2022-12-29T14:36:55;3.73;;;1.50;;
20776;SDS011;10548;47.504;8.248;2022-12-29T14:39:39;2.97;;;1.30;;
20776;SDS011;10548;47.504;8.248;2022-12-29T14:42:14;1.63;;;1.03;;
20776;SDS011;10548;47.504;8.248;2022-12-29T14:44:51;1.93;;;1.33;;
20776;SDS011;10548;47.504;8.248;2022-12-29T14:47:31;2.73;;;1.17;;
20776;SDS011;10548;47.504;8.248;2022-12-29T14:50:07;5.23;;;1.00;;
20776;SDS011;10548;47.504;8.248;2022-12-29T14:52:47;2.03;;;1.17;;
20776;SDS011;10548;47.504;8.248;2022-12-29T14:58:41;2.77;;;1.20;;
20776;SDS011;10548;47.504;8.248;2022-12-29T15:01:22;4.00;;;1.30;;
20776;SDS011;10548;47.504;8.248;2022-12-29T15:03:52;2.27;;;1.10;;
20776;SDS011;10548;47.504;8.248;2022-12-29T15:06:23;4.20;;;1.50;;
20776;SDS011;10548;47.504;8.248;2022-12-29T15:11:53;2.67;;;1.43;;
20776;SDS011;10548;47.504;8.248;2022-12-29T15:14:27;6.10;;;1.23;;
20776;SDS011;10548;47.504;8.248;2022-12-29T15:16:55;2.33;;;1.20;;
20776;SDS011;10548;47.504;8.248;2022-12-29T15:19:23;2.83;;;1.80;;
20776;SDS011;10548;47.504;8.248;2022-12-29T15:21:52;2.43;;;1.10;;
20776;SDS011;10548;47.504;8.248;2022-12-29T15:24:20;4.87;;;1.60;;
20776;SDS011;10548;47.504;8.248;2022-12-29T15:26:51;3.77;;;1.30;;
20776;SDS011;10548;47.504;8.248;2022-12-29T15:32:20;7.50;;;1.67;;
20776;SDS011;10548;47.504;8.248;2022-12-29T15:34:49;3.67;;;1.40;;
20776;SDS011;10548;47.504;8.248;2022-12-29T15:37:21;2.73;;;1.13;;
20776;SDS011;10548;47.504;8.248;2022-12-29T15:39:53;3.17;;;1.30;;
20776;SDS011;10548;47.504;8.248;2022-12-29T15:42:27;4.73;;;1.43;;
20776;SDS011;10548;47.504;8.248;2022-12-29T15:44:56;4.80;;;1.33;;
20776;SDS011;10548;47.504;8.248;2022-12-29T15:47:36;6.03;;;1.60;;
20776;SDS011;10548;47.504;8.248;2022-12-29T15:50:05;4.53;;;1.50;;
20776;SDS011;10548;47.504;8.248;2022-12-29T15:52:33;1.30;;;1.10;;
20776;SDS011;10548;47.504;8.248;2022-12-29T15:55:01;1.83;;;1.10;;
20776;SDS011;10548;47.504;8.248;2022-12-29T15:57:30;6.77;;;1.40;;
20776;SDS011;10548;47.504;8.248;2022-12-29T15:59:58;4.67;;;1.43;;
20776;SDS011;10548;47.504;8.248;2022-12-29T16:02:26;4.30;;;1.10;;
20776;SDS011;10548;47.504;8.248;2022-12-29T16:04:54;2.20;;;1.30;;
20776;SDS011;10548;47.504;8.248;2022-12-29T16:07:51;3.13;;;1.37;;
20776;SDS011;10548;47.504;8.248;2022-12-29T16:10:27;3.93;;;1.50;;
20776;SDS011;10548;47.504;8.248;2022-12-29T16:13:12;6.87;;;1.53;;
20776;SDS011;10548;47.504;8.248;2022-12-29T16:15:45;9.10;;;1.60;;
20776;SDS011;10548;47.504;8.248;2022-12-29T16:18:26;4.00;;;1.80;;
20776;SDS011;10548;47.504;8.248;2022-12-29T16:20:54;2.20;;;0.90;;
20776;SDS011;10548;47.504;8.248;2022-12-29T16:23:27;5.30;;;1.37;;
20776;SDS011;10548;47.504;8.248;2022-12-29T16:25:56;5.67;;;1.40;;
20776;SDS011;10548;47.504;8.248;2022-12-29T16:28:34;4.63;;;1.37;;
20776;SDS011;10548;47.504;8.248;2022-12-29T16:31:03;2.63;;;1.40;;
20776;SDS011;10548;47.504;8.248;2022-12-29T16:36:26;2.87;;;1.40;;
20776;SDS011;10548;47.504;8.248;2022-12-29T16:41:40;2.77;;;0.97;;
20776;SDS011;10548;47.504;8.248;2022-12-29T16:44:11;2.70;;;1.60;;
20776;SDS011;10548;47.504;8.248;2022-12-29T16:46:58;4.80;;;1.53;;
20776;SDS011;10548;47.504;8.248;2022-12-29T16:49:26;2.90;;;1.47;;
20776;SDS011;10548;47.504;8.248;2022-12-29T16:51:54;7.77;;;1.60;;
20776;SDS011;10548;47.504;8.248;2022-12-29T16:54:24;3.70;;;1.50;;
20776;SDS011;10548;47.504;8.248;2022-12-29T16:56:51;4.53;;;1.60;;
20776;SDS011;10548;47.504;8.248;2022-12-29T16:59:23;4.40;;;1.60;;
20776;SDS011;10548;47.504;8.248;2022-12-29T17:01:52;3.53;;;1.57;;